Terminal Aerodrome Forecast
Issued by NWS Detroit/Pontiac, MI

Home | Current Version | Previous Version | Text Only | Print | Product List | Glossary On
Versions: 1 2 3 4 5 6 7 8 9 10 11 12 13 14 15 16 17 18 19 20 21 22 23 24
000
FTUS43 KDTX 042320
TAFFNT
TAF
KFNT 042320Z 0500/0524 VRB04KT P6SM BKN045
     FM050800 VRB02KT 3SM BR SCT010 BKN040
     FM051400 26007KT P6SM SCT040 BKN150
     FM051900 25008KT P6SM BKN040 BKN200=

USA.gov is the U.S. government's official web portal to all federal, state and local government web resources and services.